createdAt,value
2019-02-15T00:00:43.549Z,4.83
2019-02-15T00:03:50.384Z,5.62
2019-02-15T00:06:57.334Z,4.15
2019-02-15T00:10:04.432Z,4.85
2019-02-15T00:13:13.779Z,7.20
2019-02-15T00:16:20.586Z,5.03
2019-02-15T00:19:38.204Z,5.15
2019-02-15T00:22:45.043Z,4.67
2019-02-15T00:25:52.100Z,5.45
2019-02-15T00:28:58.949Z,4.78
2019-02-15T00:32:06.238Z,5.50
2019-02-15T00:35:13.730Z,4.90
2019-02-15T00:38:20.592Z,4.47
2019-02-15T00:41:27.760Z,5.00
2019-02-15T00:44:34.609Z,4.85
2019-02-15T00:47:45.773Z,4.17
2019-02-15T00:51:11.551Z,4.30
2019-02-15T00:54:27.011Z,4.65
2019-02-15T00:57:51.605Z,4.65
2019-02-15T01:01:10.804Z,4.75
2019-02-15T01:04:34.253Z,3.75
2019-02-15T01:07:59.982Z,4.85
2019-02-15T01:11:28.726Z,3.67
2019-02-15T01:14:35.627Z,3.62
2019-02-15T01:17:42.628Z,3.65
2019-02-15T01:20:49.660Z,4.75
2019-02-15T01:23:56.447Z,4.45
2019-02-15T01:27:16.452Z,3.90
2019-02-15T01:30:48.681Z,3.25
2019-02-15T01:34:16.409Z,3.67
2019-02-15T01:37:29.638Z,2.95
2019-02-15T01:40:56.888Z,3.52
2019-02-15T01:44:09.930Z,2.90
2019-02-15T01:47:29.480Z,2.87
2019-02-15T01:50:36.318Z,3.20
2019-02-15T01:53:43.393Z,2.87
2019-02-15T01:56:50.179Z,4.62
2019-02-15T01:59:57.074Z,3.22
2019-02-15T02:03:03.942Z,4.00
2019-02-15T02:06:12.247Z,4.37
2019-02-15T02:09:20.137Z,3.77
2019-02-15T02:12:26.969Z,2.37
2019-02-15T02:15:33.769Z,3.25
2019-02-15T02:18:47.299Z,3.52
2019-02-15T02:21:56.222Z,3.15
2019-02-15T02:25:06.126Z,4.80
2019-02-15T02:28:13.885Z,3.10
2019-02-15T02:31:20.816Z,3.52
2019-02-15T02:34:27.868Z,4.00
2019-02-15T02:37:36.648Z,2.67
2019-02-15T02:40:43.616Z,3.50
2019-02-15T02:43:59.464Z,3.22
2019-02-15T02:46:59.604Z,2.60
2019-02-15T02:50:06.703Z,3.85
2019-02-15T02:53:13.569Z,2.87
2019-02-15T02:56:20.648Z,3.98
2019-02-15T02:59:27.622Z,3.08
2019-02-15T03:02:34.540Z,2.90
2019-02-15T03:05:41.637Z,3.52
2019-02-15T03:08:48.576Z,3.05
2019-02-15T03:11:55.583Z,3.02
2019-02-15T03:15:02.513Z,2.60
2019-02-15T03:18:09.352Z,3.87
2019-02-15T03:21:19.229Z,2.87
2019-02-15T03:24:24.971Z,2.77
2019-02-15T03:27:34.006Z,3.05
2019-02-15T03:30:40.865Z,2.55
2019-02-15T03:33:47.758Z,3.10
2019-02-15T03:37:22.612Z,2.60
2019-02-15T03:40:48.438Z,3.58
2019-02-15T03:43:56.314Z,2.50
2019-02-15T03:47:04.578Z,2.52
2019-02-15T03:50:11.561Z,3.20
2019-02-15T03:53:18.437Z,2.67
2019-02-15T03:56:25.373Z,2.30
2019-02-15T03:59:32.325Z,3.08
2019-02-15T04:02:39.184Z,2.20
2019-02-15T04:05:46.011Z,2.70
2019-02-15T04:08:52.879Z,2.70
2019-02-15T04:11:59.774Z,2.45
2019-02-15T04:15:09.417Z,3.30
2019-02-15T04:18:15.936Z,2.83
2019-02-15T04:21:22.822Z,2.95
2019-02-15T04:24:29.638Z,3.08
2019-02-15T04:27:36.514Z,2.40
2019-02-15T04:30:43.556Z,4.35
2019-02-15T04:33:53.173Z,3.55
2019-02-15T04:37:00.002Z,2.75
2019-02-15T04:40:08.185Z,2.83
2019-02-15T04:43:15.069Z,2.60
2019-02-15T04:46:21.848Z,2.83
2019-02-15T04:49:29.211Z,3.12
2019-02-15T04:52:36.140Z,2.65
2019-02-15T04:55:43.601Z,2.85
2019-02-15T04:58:50.640Z,2.45
2019-02-15T05:01:57.618Z,2.58
2019-02-15T05:05:05.581Z,3.40
2019-02-15T05:08:12.606Z,2.20
2019-02-15T05:11:20.546Z,2.30
2019-02-15T05:14:27.566Z,2.30
2019-02-15T05:17:34.354Z,2.27
2019-02-15T05:20:41.175Z,2.33
2019-02-15T05:23:50.392Z,2.42
2019-02-15T05:26:57.282Z,2.55
2019-02-15T05:30:04.049Z,2.75
2019-02-15T05:33:10.869Z,3.27
2019-02-15T05:36:17.636Z,3.02
2019-02-15T05:39:25.962Z,2.45
2019-02-15T05:42:32.794Z,2.30
2019-02-15T05:45:41.201Z,3.08
2019-02-15T05:48:48.280Z,2.40
2019-02-15T05:51:55.635Z,2.90
2019-02-15T05:55:02.671Z,2.35
2019-02-15T05:58:09.553Z,3.27
2019-02-15T06:01:17.111Z,2.90
2019-02-15T06:04:25.155Z,2.45
2019-02-15T06:07:32.025Z,2.37
2019-02-15T06:10:38.963Z,3.20
2019-02-15T06:13:45.972Z,2.62
2019-02-15T06:16:52.803Z,2.55
2019-02-15T06:19:59.654Z,2.35
2019-02-15T06:23:07.671Z,2.92
2019-02-15T06:26:14.788Z,2.20
2019-02-15T06:29:21.610Z,2.60
2019-02-15T06:32:28.476Z,2.27
2019-02-15T06:35:35.480Z,2.65
2019-02-15T06:38:42.294Z,2.60
2019-02-15T06:41:49.273Z,3.15
2019-02-15T06:44:56.267Z,3.12
2019-02-15T06:48:03.288Z,2.85
2019-02-15T06:51:10.264Z,2.12
2019-02-15T06:54:17.581Z,2.40
2019-02-15T06:57:24.506Z,2.17
2019-02-15T07:01:05.681Z,3.40
2019-02-15T07:04:29.897Z,2.52
2019-02-15T07:07:36.897Z,2.58
2019-02-15T07:10:43.729Z,2.98
2019-02-15T07:13:52.499Z,3.27
2019-02-15T07:16:59.355Z,3.10
2019-02-15T07:20:08.064Z,4.40
2019-02-15T07:23:16.059Z,3.45
2019-02-15T07:26:23.034Z,3.30
2019-02-15T07:29:29.928Z,3.50
2019-02-15T07:32:36.825Z,3.10
2019-02-15T07:35:43.996Z,3.70
2019-02-15T07:38:51.197Z,2.95
2019-02-15T07:41:58.076Z,2.92
2019-02-15T07:45:05.104Z,3.02
2019-02-15T07:48:12.126Z,2.50
2019-02-15T07:51:18.934Z,4.30
2019-02-15T07:54:27.400Z,3.10
2019-02-15T07:57:34.230Z,2.47
2019-02-15T08:00:41.110Z,3.05
2019-02-15T08:03:48.066Z,3.08
2019-02-15T08:06:55.144Z,3.50
2019-02-15T08:10:02.047Z,2.52
2019-02-15T08:13:08.930Z,2.45
2019-02-15T08:16:15.943Z,2.45
2019-02-15T08:19:22.815Z,2.47
2019-02-15T08:22:29.707Z,2.30
2019-02-15T08:25:36.608Z,2.80
2019-02-15T08:28:43.573Z,2.12
2019-02-15T08:31:50.448Z,2.72
2019-02-15T08:34:57.407Z,2.45
2019-02-15T08:38:04.294Z,2.60
2019-02-15T08:41:11.275Z,2.55
2019-02-15T08:44:18.219Z,2.50
2019-02-15T08:47:25.264Z,2.42
2019-02-15T08:50:32.058Z,2.83
2019-02-15T08:53:38.913Z,3.62
2019-02-15T08:56:46.152Z,2.45
2019-02-15T08:59:54.086Z,2.20
2019-02-15T09:03:01.148Z,2.50
2019-02-15T09:06:08.219Z,2.50
2019-02-15T09:09:15.114Z,2.92
2019-02-15T09:12:22.045Z,2.15
2019-02-15T09:15:29.007Z,2.47
2019-02-15T09:18:35.860Z,2.10
2019-02-15T09:21:42.732Z,2.67
2019-02-15T09:24:49.665Z,3.15
2019-02-15T09:28:14.917Z,2.00
2019-02-15T09:31:21.933Z,2.67
2019-02-15T09:34:28.868Z,3.27
2019-02-15T09:37:37.084Z,2.95
2019-02-15T09:40:45.049Z,2.47
2019-02-15T09:43:51.890Z,3.52
2019-02-15T09:46:58.864Z,2.67
2019-02-15T09:50:07.539Z,3.10
2019-02-15T09:53:15.114Z,2.92
2019-02-15T09:56:22.021Z,3.17
2019-02-15T09:59:32.165Z,2.60
2019-02-15T10:02:39.166Z,3.40
2019-02-15T10:05:45.954Z,2.42
2019-02-15T10:08:52.865Z,2.62
2019-02-15T10:11:59.728Z,3.30
2019-02-15T10:15:07.097Z,2.30
2019-02-15T10:18:14.183Z,3.47
2019-02-15T10:21:27.275Z,2.95
2019-02-15T10:24:43.353Z,3.00
2019-02-15T10:27:54.603Z,2.67
2019-02-15T10:31:02.835Z,3.22
2019-02-15T10:34:11.113Z,2.65
2019-02-15T10:37:19.144Z,3.50
2019-02-15T10:40:26.069Z,3.45
2019-02-15T10:43:33.268Z,5.97
2019-02-15T10:46:40.392Z,3.80
2019-02-15T10:49:47.281Z,4.47
2019-02-15T10:52:54.429Z,6.30
2019-02-15T10:56:01.758Z,3.75
2019-02-15T10:59:08.864Z,3.77
2019-02-15T11:02:17.060Z,2.72
2019-02-15T11:05:24.179Z,3.65
2019-02-15T11:08:31.582Z,4.05
2019-02-15T11:11:38.868Z,4.10
2019-02-15T11:14:46.277Z,4.80
2019-02-15T11:17:54.572Z,5.92
2019-02-15T11:21:01.484Z,5.75
2019-02-15T11:24:08.418Z,6.03
2019-02-15T11:27:15.363Z,4.58
2019-02-15T11:30:22.450Z,4.70
2019-02-15T11:33:29.255Z,4.95
2019-02-15T11:36:36.384Z,3.55
2019-02-15T11:39:43.368Z,4.30
2019-02-15T11:42:50.310Z,5.28
2019-02-15T11:45:57.291Z,5.35
2019-02-15T11:49:07.117Z,2.83
2019-02-15T11:52:14.147Z,3.55
2019-02-15T11:55:21.364Z,3.17
2019-02-15T11:58:29.507Z,3.15
2019-02-15T12:01:37.595Z,3.33
2019-02-15T12:04:44.833Z,2.67
2019-02-15T12:07:51.765Z,3.08
2019-02-15T12:10:58.858Z,3.37
2019-02-15T12:14:05.892Z,3.98
2019-02-15T12:17:16.410Z,3.95
2019-02-15T12:20:23.363Z,3.10
2019-02-15T12:23:30.261Z,3.92
2019-02-15T12:26:37.177Z,3.65
2019-02-15T12:29:44.078Z,2.90
2019-02-15T12:32:56.079Z,2.90
2019-02-15T12:36:03.139Z,2.98
2019-02-15T12:39:14.291Z,3.12
2019-02-15T12:42:21.007Z,3.50
2019-02-15T12:45:27.909Z,3.80
2019-02-15T12:48:34.838Z,2.92
2019-02-15T12:51:41.752Z,3.17
2019-02-15T12:54:48.729Z,2.98
2019-02-15T12:57:55.615Z,3.10
2019-02-15T13:01:02.702Z,2.37
2019-02-15T13:04:11.020Z,3.98
2019-02-15T13:07:18.208Z,2.10
2019-02-15T13:10:28.531Z,3.50
2019-02-15T13:13:35.652Z,2.72
2019-02-15T13:16:42.644Z,2.83
2019-02-15T13:19:49.516Z,2.90
2019-02-15T13:22:56.450Z,3.00
2019-02-15T13:26:08.493Z,2.95
2019-02-15T13:29:13.528Z,3.80
2019-02-15T13:32:25.328Z,3.12
2019-02-15T13:35:32.390Z,2.70
2019-02-15T13:38:40.968Z,4.87
2019-02-15T13:41:48.089Z,2.83
2019-02-15T13:44:59.533Z,2.40
2019-02-15T13:48:06.862Z,3.30
2019-02-15T13:51:14.018Z,2.55
2019-02-15T13:54:21.124Z,2.80
2019-02-15T13:57:28.711Z,3.20
2019-02-15T14:00:35.651Z,2.60
2019-02-15T14:03:42.671Z,4.33
2019-02-15T14:06:56.365Z,2.15
2019-02-15T14:10:04.357Z,3.12
2019-02-15T14:13:11.318Z,6.45
2019-02-15T14:16:18.245Z,2.05
2019-02-15T14:19:25.243Z,2.20
2019-02-15T14:22:32.191Z,2.17
2019-02-15T14:25:39.247Z,2.05
2019-02-15T14:28:46.153Z,2.85
2019-02-15T14:31:53.165Z,2.45
2019-02-15T14:35:02.246Z,1.82
2019-02-15T14:38:09.085Z,1.57
2019-02-15T14:41:16.656Z,2.50
2019-02-15T14:44:23.670Z,2.90
2019-02-15T14:47:31.545Z,2.70
2019-02-15T14:50:38.532Z,2.02
2019-02-15T14:53:45.333Z,3.30
2019-02-15T14:56:52.301Z,2.08
2019-02-15T14:59:59.146Z,2.05
2019-02-15T15:03:06.124Z,2.60
2019-02-15T15:06:13.586Z,2.85
2019-02-15T15:09:20.446Z,2.27
2019-02-15T15:12:27.825Z,2.35
2019-02-15T15:15:35.036Z,1.90
2019-02-15T15:18:41.998Z,1.90
2019-02-15T15:21:48.900Z,2.25
2019-02-15T15:24:55.968Z,2.75
2019-02-15T15:28:02.810Z,1.95
2019-02-15T15:31:11.330Z,1.90
2019-02-15T15:34:18.427Z,2.52
2019-02-15T15:37:25.420Z,2.50
2019-02-15T15:40:32.393Z,2.77
2019-02-15T15:43:39.256Z,2.30
2019-02-15T15:46:46.092Z,2.12
2019-02-15T15:49:53.099Z,1.80
2019-02-15T15:53:00.049Z,2.50
2019-02-15T15:56:06.930Z,1.77
2019-02-15T15:59:15.105Z,2.70
2019-02-15T16:02:22.046Z,2.27
2019-02-15T16:05:29.155Z,1.90
2019-02-15T16:08:36.169Z,2.55
2019-02-15T16:11:43.288Z,2.47
2019-02-15T16:14:53.208Z,3.02
2019-02-15T16:17:59.857Z,2.00
2019-02-15T16:21:06.885Z,2.12
2019-02-15T16:24:14.104Z,2.95
2019-02-15T16:27:21.044Z,1.85
2019-02-15T16:30:27.969Z,1.92
2019-02-15T16:33:34.794Z,2.20
2019-02-15T16:36:41.980Z,2.12
2019-02-15T16:39:48.774Z,3.27
2019-02-15T16:42:55.746Z,1.85
2019-02-15T16:46:02.593Z,2.35
2019-02-15T16:49:09.953Z,3.52
2019-02-15T16:52:16.924Z,3.00
2019-02-15T16:55:23.771Z,4.62
2019-02-15T16:58:30.551Z,2.42
2019-02-15T17:01:37.964Z,2.75
2019-02-15T17:04:44.989Z,3.00
2019-02-15T17:07:52.155Z,3.98
2019-02-15T17:10:59.529Z,3.50
2019-02-15T17:14:06.467Z,3.25
2019-02-15T17:17:13.823Z,3.87
2019-02-15T17:20:20.673Z,4.28
2019-02-15T17:23:27.437Z,2.77
2019-02-15T17:26:34.380Z,4.80
2019-02-15T17:29:41.264Z,5.87
2019-02-15T17:32:48.190Z,3.90
2019-02-15T17:35:55.160Z,5.65
2019-02-15T17:39:04.255Z,4.70
2019-02-15T17:42:13.629Z,3.50
2019-02-15T17:45:20.745Z,4.80
2019-02-15T17:48:27.669Z,4.90
2019-02-15T17:51:34.702Z,6.80
2019-02-15T17:54:41.997Z,4.80
2019-02-15T17:57:48.895Z,3.55
2019-02-15T18:00:57.247Z,5.45
2019-02-15T18:04:04.180Z,5.28
2019-02-15T18:07:12.786Z,6.15
2019-02-15T18:10:19.699Z,7.87
2019-02-15T18:13:26.605Z,8.50
2019-02-15T18:16:33.533Z,6.03
2019-02-15T18:19:47.027Z,7.95
2019-02-15T18:22:49.482Z,4.95
2019-02-15T18:25:56.540Z,6.92
2019-02-15T18:29:03.483Z,5.35
2019-02-15T18:32:13.452Z,6.20
2019-02-15T18:35:20.379Z,6.42
2019-02-15T18:38:27.439Z,4.97
2019-02-15T18:41:34.565Z,5.20
2019-02-15T18:44:41.372Z,4.70
2019-02-15T18:47:48.374Z,4.90
2019-02-15T18:50:55.260Z,3.85
2019-02-15T18:54:02.278Z,5.78
2019-02-15T18:57:09.227Z,6.00
2019-02-15T19:00:22.543Z,7.10
2019-02-15T19:03:29.647Z,6.12
2019-02-15T19:06:39.326Z,6.00
2019-02-15T19:09:46.395Z,4.65
2019-02-15T19:12:53.629Z,6.00
2019-02-15T19:16:01.790Z,4.95
2019-02-15T19:19:11.916Z,6.90
2019-02-15T19:22:22.747Z,6.47
2019-02-15T19:25:31.314Z,4.75
2019-02-15T19:28:39.348Z,9.00
2019-02-15T19:31:49.809Z,7.22
2019-02-15T19:34:58.032Z,7.08
2019-02-15T19:38:08.909Z,6.87
2019-02-15T19:41:17.014Z,6.90
2019-02-15T19:44:24.039Z,7.33
2019-02-15T19:47:30.970Z,5.60
2019-02-15T19:50:39.064Z,6.58
2019-02-15T19:53:46.029Z,5.45
2019-02-15T19:56:53.457Z,4.17
2019-02-15T20:00:00.733Z,7.35
2019-02-15T20:03:07.874Z,6.30
2019-02-15T20:06:15.116Z,6.05
2019-02-15T20:09:21.958Z,6.35
2019-02-15T20:12:28.881Z,6.20
2019-02-15T20:15:36.217Z,5.75
2019-02-15T20:18:43.349Z,5.70
2019-02-15T20:21:50.453Z,5.10
2019-02-15T20:24:58.749Z,4.15
2019-02-15T20:28:13.613Z,6.05
2019-02-15T20:31:14.887Z,5.65
2019-02-15T20:34:21.777Z,6.22
2019-02-15T20:37:28.755Z,5.15
2019-02-15T20:40:35.722Z,6.37
2019-02-15T20:43:42.683Z,5.10
2019-02-15T20:46:49.748Z,6.12
2019-02-15T20:49:58.308Z,5.53
2019-02-15T20:53:05.437Z,3.80
2019-02-15T20:56:12.490Z,5.67
2019-02-15T20:59:19.493Z,5.40
2019-02-15T21:02:26.389Z,6.28
2019-02-15T21:05:33.300Z,5.55
2019-02-15T21:08:40.440Z,5.37
2019-02-15T21:11:47.453Z,7.10
2019-02-15T21:14:54.310Z,6.53
2019-02-15T21:18:01.515Z,4.75
2019-02-15T21:21:08.484Z,5.87
2019-02-15T21:24:15.809Z,4.72
2019-02-15T21:27:22.878Z,5.42
2019-02-15T21:30:29.878Z,5.42
2019-02-15T21:33:36.774Z,4.28
2019-02-15T21:36:45.050Z,8.60
2019-02-15T21:39:51.920Z,5.80
2019-02-15T21:42:59.031Z,6.90
2019-02-15T21:46:06.068Z,7.12
2019-02-15T21:49:13.643Z,5.50
2019-02-15T21:52:22.864Z,4.70
2019-02-15T21:55:31.195Z,8.00
2019-02-15T21:58:38.210Z,5.47
2019-02-15T22:01:45.059Z,6.17
2019-02-15T22:04:52.072Z,6.17
2019-02-15T22:07:58.942Z,4.60
2019-02-15T22:11:05.896Z,3.30
2019-02-15T22:14:14.392Z,5.20
2019-02-15T22:17:21.524Z,5.20
2019-02-15T22:20:28.484Z,5.67
2019-02-15T22:23:35.353Z,5.53
2019-02-15T22:26:42.228Z,4.40
2019-02-15T22:29:50.308Z,4.80
2019-02-15T22:32:57.255Z,6.83
2019-02-15T22:36:04.137Z,6.30
2019-02-15T22:39:11.247Z,4.87
2019-02-15T22:42:18.120Z,4.95
2019-02-15T22:45:25.191Z,4.72
2019-02-15T22:48:32.047Z,4.83
2019-02-15T22:51:39.317Z,4.72
2019-02-15T22:54:46.192Z,5.40
2019-02-15T22:57:53.042Z,7.12
2019-02-15T23:01:20.391Z,5.08
2019-02-15T23:04:27.528Z,6.55
2019-02-15T23:07:36.199Z,5.30
2019-02-15T23:10:43.053Z,5.28
2019-02-15T23:13:49.992Z,4.45
2019-02-15T23:16:57.032Z,4.10
2019-02-15T23:20:03.981Z,3.92
2019-02-15T23:23:11.080Z,4.80
2019-02-15T23:26:17.864Z,5.70
2019-02-15T23:29:24.931Z,4.30
2019-02-15T23:32:32.137Z,4.10
2019-02-15T23:35:39.035Z,7.28
2019-02-15T23:38:45.899Z,5.15
2019-02-15T23:41:53.004Z,4.70
2019-02-15T23:44:59.788Z,4.22
2019-02-15T23:48:06.688Z,4.03
2019-02-15T23:51:14.153Z,4.65
2019-02-15T23:54:22.404Z,4.17
2019-02-15T23:57:29.361Z,3.70
